Time;durP1;ratioP1;P1;durP2;ratioP2;P2;SDS_P1;SDS_P2;PMS_P1;PMS_P2;Temp;Humidity;BMP_temperature;BMP_pressure;BME280_temperature;BME280_humidity;BME280_pressure;Samples;Min_cycle;Max_cycle;Signal;HPM_P1;HPM_P2
2022/08/30 00:04:18;;;;;;;5.40;4.50;;;;;;;13.22;79.15;99763.48;432631;1271;144005;-60
2022/08/30 00:14:26;;;;;;;10.20;6.00;;;;;;;13.14;79.28;99766.84;431864;1271;142032;-59
2022/08/30 00:24:30;;;;;;;;;;;;;;;13.24;79.86;99764.02;432098;1271;148299;-60
2022/08/30 00:34:36;;;;;;;6.80;4.70;;;;;;;13.49;79.83;99767.30;431939;1271;129147;-58
2022/08/30 00:44:43;;;;;;;8.10;5.50;;;;;;;13.72;79.56;99761.61;431437;1271;142294;-58
2022/08/30 00:54:51;;;;;;;8.20;5.40;;;;;;;13.92;80.11;99756.79;430509;1271;145338;-61
2022/08/30 01:04:57;;;;;;;9.90;6.20;;;;;;;14.13;80.73;99756.45;430669;1271;147219;-58
2022/08/30 01:15:04;;;;;;;7.50;5.90;;;;;;;14.32;81.11;99753.28;432243;1271;143351;-59
2022/08/30 01:25:12;;;;;;;7.70;6.20;;;;;;;14.38;81.37;99753.54;433685;1271;143624;-58
2022/08/30 01:35:19;;;;;;;7.50;6.80;;;;;;;14.56;81.57;99751.77;431659;1271;202968;-59
2022/08/30 01:45:25;;;;;;;8.60;6.80;;;;;;;14.78;81.68;99748.30;431791;1271;141901;-60
2022/08/30 01:55:31;;;;;;;9.70;6.10;;;;;;;14.99;81.59;99745.63;434623;1271;143253;-59
2022/08/30 02:05:37;;;;;;;8.00;6.90;;;;;;;15.13;81.34;99747.15;429250;1271;143391;-60
2022/08/30 02:15:43;;;;;;;7.00;6.30;;;;;;;15.27;81.36;99742.36;447584;1269;144545;-58
2022/08/30 02:25:48;;;;;;;6.50;5.90;;;;;;;15.36;81.18;99739.81;437411;1271;190129;-59
2022/08/30 02:35:55;;;;;;;8.20;6.10;;;;;;;15.47;81.12;99748.27;447613;1271;145073;-59
2022/08/30 02:46:01;;;;;;;7.80;7.00;;;;;;;15.55;80.99;99742.33;447539;1271;142766;-59
2022/08/30 02:56:08;;;;;;;8.00;7.30;;;;;;;15.59;80.97;99749.40;446953;1271;143694;-59
2022/08/30 03:06:14;;;;;;;8.60;7.60;;;;;;;15.54;81.26;99750.42;447643;1271;142832;-59
2022/08/30 03:16:21;;;;;;;9.60;8.70;;;;;;;15.54;81.64;99747.23;447536;1270;143122;-63
2022/08/30 03:26:27;;;;;;;9.20;7.60;;;;;;;15.53;81.87;99754.46;446482;1272;143873;-59
2022/08/30 03:36:32;;;;;;;13.70;8.70;;;;;;;15.56;81.89;99755.85;447591;1269;142930;-60
2022/08/30 03:46:38;;;;;;;11.20;9.10;;;;;;;15.56;82.18;99755.69;445972;1269;143185;-60
2022/08/30 03:56:45;;;;;;;9.00;8.10;;;;;;;15.58;82.42;99761.73;433973;1271;146621;-59
2022/08/30 04:06:51;;;;;;;9.40;8.50;;;;;;;15.60;82.55;99763.85;430001;1272;143067;-60
2022/08/30 04:16:57;;;;;;;9.40;8.40;;;;;;;15.67;82.67;99774.90;430511;1271;148411;-58
2022/08/30 04:27:03;;;;;;;13.90;9.80;;;;;;;15.80;82.65;99783.68;431542;1271;141942;-58
2022/08/30 04:37:09;;;;;;;12.20;8.90;;;;;;;15.96;82.67;99789.45;430344;1271;146193;-58
2022/08/30 04:47:15;;;;;;;8.50;7.70;;;;;;;16.31;82.49;99795.09;430110;1271;144136;-59
2022/08/30 04:57:20;;;;;;;8.80;8.00;;;;;;;16.69;81.60;99811.09;430892;1271;144196;-56
2022/08/30 05:07:27;;;;;;;8.70;7.00;;;;;;;16.71;81.10;99811.45;431727;1271;148310;-58
2022/08/30 05:17:32;;;;;;;7.90;7.10;;;;;;;16.87;80.52;99810.13;429974;1271;142522;-57
2022/08/30 05:27:38;;;;;;;6.50;5.20;;;;;;;16.99;79.75;99822.71;430326;1271;142947;-60
2022/08/30 05:37:44;;;;;;;8.20;5.20;;;;;;;17.32;78.96;99835.43;430128;1271;142925;-59
2022/08/30 05:47:50;;;;;;;6.50;5.10;;;;;;;17.42;78.11;99842.83;437529;1270;142338;-57
2022/08/30 05:57:56;;;;;;;4.00;3.70;;;;;;;17.59;77.37;99842.05;433952;1271;142269;-60
2022/08/30 06:08:02;;;;;;;4.90;3.40;;;;;;;17.78;76.41;99843.02;429477;1272;144868;-59
2022/08/30 06:18:08;;;;;;;2.20;2.00;;;;;;;18.46;75.09;99841.25;432078;1271;143002;-60
2022/08/30 06:28:14;;;;;;;3.60;3.00;;;;;;;18.54;73.70;99846.44;430586;1271;143919;-60
2022/08/30 06:38:20;;;;;;;3.00;2.40;;;;;;;19.46;72.82;99843.21;429520;1270;1540016;-59
2022/08/30 06:48:26;;;;;;;5.70;3.20;;;;;;;19.61;70.48;99851.01;430427;1270;142965;-58
2022/08/30 06:58:34;;;;;;;4.30;3.60;;;;;;;18.78;71.18;99862.63;430585;1271;142621;-60
2022/08/30 07:08:41;;;;;;;3.90;2.60;;;;;;;18.39;71.57;99873.27;430176;1271;146008;-58
2022/08/30 07:18:54;;;;;;;4.70;2.40;;;;;;;18.31;71.57;99880.81;430247;1271;194768;-58
2022/08/30 07:29:01;;;;;;;4.20;2.20;;;;;;;18.25;71.50;99894.41;430224;1271;144933;-60
2022/08/30 07:39:08;;;;;;;5.90;2.70;;;;;;;18.23;71.36;99903.85;431094;1271;142528;-59
2022/08/30 07:49:14;;;;;;;2.30;1.30;;;;;;;19.14;70.90;99908.05;431184;1271;147749;-58
2022/08/30 07:59:21;;;;;;;1.70;1.30;;;;;;;22.49;66.90;99914.55;430430;1271;147264;-58
2022/08/30 08:09:26;;;;;;;4.30;0.90;;;;;;;22.72;62.67;99912.55;430846;1271;145756;-59
2022/08/30 08:19:32;;;;;;;3.00;1.50;;;;;;;23.11;62.25;99918.21;430932;1271;142791;-58
2022/08/30 08:29:39;;;;;;;0.80;0.70;;;;;;;24.29;58.87;99924.62;429556;1271;142482;-59
2022/08/30 08:39:44;;;;;;;1.00;1.00;;;;;;;25.16;56.59;99919.98;431352;1271;142503;-58
2022/08/30 08:49:55;;;;;;;0.80;0.70;;;;;;;26.33;54.43;99927.86;429973;1271;141515;-59
2022/08/30 09:00:01;;;;;;;0.80;0.80;;;;;;;26.66;52.06;99936.23;432000;1271;142578;-59
2022/08/30 09:10:09;;;;;;;1.20;0.90;;;;;;;25.62;51.81;99935.29;431653;1271;142226;-58
2022/08/30 09:20:27;;;;;;;2.90;1.30;;;;;;;25.38;51.89;99930.52;430650;1271;141714;-58
2022/08/30 09:30:31;;;;;;;;;;;;;;;24.12;52.00;99931.48;431541;1271;142361;-58
2022/08/30 09:40:39;;;;;;;2.20;1.10;;;;;;;22.76;53.60;99939.33;430792;1271;128447;-59
2022/08/30 09:50:46;;;;;;;2.10;1.60;;;;;;;21.83;55.20;99937.33;430887;1271;145411;-59
2022/08/30 10:01:07;;;;;;;1.30;1.20;;;;;;;22.11;55.45;99942.25;430440;1272;141056;-58
2022/08/30 10:11:20;;;;;;;4.40;1.60;;;;;;;22.68;55.10;99941.80;429963;1271;201763;-58
2022/08/30 10:21:34;;;;;;;1.40;0.80;;;;;;;23.16;54.59;99938.27;430852;1272;141596;-57
2022/08/30 10:31:46;;;;;;;1.40;0.90;;;;;;;22.55;54.06;99943.80;431130;1271;142671;-58
2022/08/30 10:42:00;;;;;;;1.50;1.20;;;;;;;22.55;53.90;99940.58;430950;1271;141644;-59
2022/08/30 10:52:23;;;;;;;1.80;1.00;;;;;;;23.05;53.50;99943.11;430870;1271;141948;-59
2022/08/30 11:03:11;;;;;;;2.00;1.80;;;;;;;23.10;52.55;99941.93;430159;1272;141684;-59
2022/08/30 11:13:21;;;;;;;3.40;1.10;;;;;;;22.94;52.46;99940.97;432708;1271;141841;-58
2022/08/30 11:23:32;;;;;;;1.80;1.50;;;;;;;23.08;52.19;99937.95;430007;1271;142238;-58
2022/08/30 11:33:47;;;;;;;1.10;0.70;;;;;;;23.23;51.49;99938.17;430366;1271;143027;-59
2022/08/30 11:43:56;;;;;;;0.40;0.40;;;;;;;23.09;51.45;99939.19;430526;1271;141808;-58
2022/08/30 11:54:09;;;;;;;3.40;0.80;;;;;;;22.88;51.34;99939.88;431276;1271;184305;-58
2022/08/30 12:04:37;;;;;;;6.50;0.80;;;;;;;22.96;51.83;99940.79;430286;1271;141937;-58
2022/08/30 12:14:53;;;;;;;0.70;0.30;;;;;;;22.68;51.78;99947.40;430273;1271;142064;-58
2022/08/30 12:24:59;;;;;;;2.70;0.90;;;;;;;22.13;51.80;99943.98;431661;1271;141784;-58
2022/08/30 12:35:07;;;;;;;3.30;0.70;;;;;;;21.88;52.70;99939.38;430589;1271;142691;-58
2022/08/30 12:45:15;;;;;;;0.40;0.40;;;;;;;21.99;53.17;99931.75;430745;1271;142322;-58
2022/08/30 12:55:23;;;;;;;2.20;0.90;;;;;;;22.12;53.35;99927.02;430666;1271;142126;-59
2022/08/30 13:05:33;;;;;;;3.10;1.30;;;;;;;21.97;53.19;99923.91;430346;1271;190540;-58
2022/08/30 13:15:43;;;;;;;2.40;0.70;;;;;;;21.86;53.67;99919.36;430877;1271;141887;-56
2022/08/30 13:25:50;;;;;;;6.80;1.30;;;;;;;22.00;54.02;99908.79;430482;1271;142522;-59
2022/08/30 13:35:55;;;;;;;2.00;0.70;;;;;;;22.25;53.27;99905.09;431028;1271;141629;-59
2022/08/30 13:46:02;;;;;;;2.00;0.70;;;;;;;22.31;53.00;99896.30;432470;1271;144016;-58
2022/08/30 13:56:08;;;;;;;2.50;0.70;;;;;;;22.25;52.55;99891.59;430492;1271;143002;-58
2022/08/30 14:06:19;;;;;;;3.50;0.60;;;;;;;22.16;52.74;99888.58;431678;1271;141948;-60
2022/08/30 14:16:41;;;;;;;2.90;1.10;;;;;;;22.09;52.96;99880.61;430282;1271;141583;-60
2022/08/30 14:26:50;;;;;;;2.70;0.50;;;;;;;22.02;52.75;99879.25;430015;1271;142198;-58
2022/08/30 14:36:57;;;;;;;2.20;0.40;;;;;;;21.80;52.46;99870.90;438913;1271;142004;-62
2022/08/30 14:47:04;;;;;;;1.60;0.90;;;;;;;21.66;51.99;99862.21;430740;1271;143537;-56
2022/08/30 14:57:09;;;;;;;0.90;0.50;;;;;;;21.48;51.40;99864.02;430846;1271;142349;-61
2022/08/30 15:07:16;;;;;;;1.00;0.40;;;;;;;21.37;50.89;99858.05;430494;1271;141556;-59
2022/08/30 15:17:22;;;;;;;2.60;0.90;;;;;;;21.55;50.66;99851.13;430228;1272;142676;-59
2022/08/30 15:27:28;;;;;;;1.20;0.20;;;;;;;21.33;50.54;99845.32;430333;1271;142380;-58
2022/08/30 15:37:36;;;;;;;3.40;0.90;;;;;;;21.17;50.77;99843.61;430655;1271;141852;-57
2022/08/30 15:47:42;;;;;;;3.40;0.80;;;;;;;20.97;50.99;99839.83;430469;1271;147674;-59
2022/08/30 15:57:49;;;;;;;2.50;0.40;;;;;;;20.46;51.78;99836.02;431003;1271;141928;-60
2022/08/30 16:07:55;;;;;;;1.00;0.40;;;;;;;20.08;52.54;99836.69;439853;1271;141417;-56
2022/08/30 16:18:01;;;;;;;1.90;0.50;;;;;;;19.77;53.44;99837.70;431742;1271;140541;-59
2022/08/30 16:28:07;;;;;;;1.50;0.70;;;;;;;19.40;54.69;99837.94;430879;1271;143296;-58
2022/08/30 16:38:14;;;;;;;1.60;0.40;;;;;;;19.15;55.47;99840.19;430403;1271;147897;-58
2022/08/30 16:48:20;;;;;;;4.10;0.80;;;;;;;19.07;56.05;99834.20;431270;1271;142273;-60
2022/08/30 16:58:26;;;;;;;2.10;0.90;;;;;;;18.93;55.89;99835.13;430892;1271;142166;-59
2022/08/30 17:08:32;;;;;;;1.60;0.70;;;;;;;18.77;56.12;99846.16;430128;1271;142909;-61
2022/08/30 17:18:38;;;;;;;1.10;0.70;;;;;;;18.61;56.55;99856.77;432282;1271;146641;-58
2022/08/30 17:28:46;;;;;;;1.90;0.70;;;;;;;18.45;57.30;99859.53;430304;1271;142344;-59
2022/08/30 17:38:52;;;;;;;2.10;1.30;;;;;;;18.30;58.07;99859.77;431314;1271;142750;-59
2022/08/30 17:48:58;;;;;;;3.20;1.20;;;;;;;18.20;58.72;99871.70;431037;1270;143198;-59
2022/08/30 17:59:06;;;;;;;2.80;1.20;;;;;;;18.09;59.32;99876.91;431188;1271;142146;-59
2022/08/30 18:09:13;;;;;;;3.70;1.20;;;;;;;18.00;59.86;99885.15;430754;1271;143028;-59
2022/08/30 18:19:19;;;;;;;2.70;1.40;;;;;;;17.93;60.17;99889.48;430857;1271;142686;-60
2022/08/30 18:29:26;;;;;;;4.80;1.40;;;;;;;17.88;60.44;99899.52;430133;1271;144365;-60
2022/08/30 18:39:52;;;;;;;5.40;1.90;;;;;;;17.84;61.02;99908.38;430032;1271;1536093;-58
2022/08/30 18:49:58;;;;;;;3.70;1.60;;;;;;;17.78;61.23;99910.25;430107;1271;145057;-58
2022/08/30 19:00:05;;;;;;;2.50;1.30;;;;;;;17.75;61.97;99911.77;430628;1271;142066;-57
2022/08/30 19:10:13;;;;;;;4.60;2.10;;;;;;;17.72;62.25;99912.99;430673;1271;142682;-58
2022/08/30 19:20:21;;;;;;;4.00;1.20;;;;;;;17.69;62.54;99921.55;430425;1271;144441;-59
2022/08/30 19:30:28;;;;;;;3.60;2.10;;;;;;;17.62;62.84;99927.77;430805;1271;143473;-58
2022/08/30 19:40:34;;;;;;;2.40;1.00;;;;;;;17.50;63.20;99933.82;430941;1271;142734;-59
2022/08/30 19:50:40;;;;;;;1.40;1.10;;;;;;;17.32;63.16;99941.55;429366;1271;142102;-59
2022/08/30 20:00:46;;;;;;;1.90;1.30;;;;;;;17.08;63.48;99942.77;430941;1271;147696;-58
2022/08/30 20:11:16;;;;;;;2.40;0.70;;;;;;;16.91;64.12;99947.30;430436;1271;142621;-61
2022/08/30 20:21:22;;;;;;;2.70;1.40;;;;;;;16.79;64.83;99949.89;431398;1271;142921;-58
2022/08/30 20:31:29;;;;;;;2.00;1.30;;;;;;;16.66;65.32;99946.73;430588;1271;147495;-59
2022/08/30 20:41:35;;;;;;;2.70;1.20;;;;;;;16.55;65.97;99943.79;429803;1271;145878;-59
2022/08/30 20:51:41;;;;;;;2.60;0.80;;;;;;;16.44;66.57;99945.77;431323;1271;142717;-60
2022/08/30 21:01:47;;;;;;;3.80;1.40;;;;;;;16.35;67.19;99948.07;429455;1271;164489;-61
2022/08/30 21:11:54;;;;;;;1.50;0.80;;;;;;;16.25;67.71;99949.36;430782;1271;142139;-60
2022/08/30 21:22:00;;;;;;;1.40;0.60;;;;;;;16.18;68.10;99943.95;430757;1271;142879;-60
2022/08/30 21:32:06;;;;;;;1.80;0.60;;;;;;;16.13;68.41;99951.06;430055;1271;147740;-59
2022/08/30 21:42:11;;;;;;;2.30;0.90;;;;;;;16.09;68.69;99949.46;430817;1271;142809;-58
2022/08/30 21:52:18;;;;;;;1.40;0.40;;;;;;;16.07;68.77;99944.15;431024;1271;143267;-58
2022/08/30 22:02:24;;;;;;;1.60;0.60;;;;;;;16.05;68.98;99944.28;430654;1271;143089;-59
2022/08/30 22:12:30;;;;;;;1.20;0.90;;;;;;;16.03;69.05;99943.18;431652;1271;142803;-59
2022/08/30 22:22:36;;;;;;;2.70;0.80;;;;;;;16.03;69.11;99945.67;431103;1271;147408;-56
2022/08/30 22:32:42;;;;;;;3.20;1.00;;;;;;;16.05;69.41;99947.83;430435;1271;142965;-59
2022/08/30 22:42:48;;;;;;;3.50;0.90;;;;;;;16.03;69.30;99943.41;430937;1271;146687;-60
2022/08/30 22:52:54;;;;;;;1.10;0.70;;;;;;;16.01;69.44;99948.01;431029;1271;142256;-56
2022/08/30 23:03:01;;;;;;;1.90;1.20;;;;;;;16.00;69.56;99945.59;430720;1269;141959;-58
2022/08/30 23:13:06;;;;;;;2.80;1.50;;;;;;;15.99;69.90;99947.61;432024;1271;143145;-61
